Time;durP1;ratioP1;P1;durP2;ratioP2;P2;SDS_P1;SDS_P2;PMS_P1;PMS_P2;Temp;Humidity;BMP_temperature;BMP_pressure;BME280_temperature;BME280_humidity;BME280_pressure;Samples;Min_cycle;Max_cycle;Signal;HPM_P1;HPM_P2
2021/12/10 00:01:57;;;;;;;22.08;14.05;;;;;;;2.42;76.41;98035.03;4360140;32;35655;-87
2021/12/10 00:04:31;;;;;;;20.75;13.07;;;;;;;2.90;75.09;98034.53;4360431;32;34128;-86
2021/12/10 00:07:03;;;;;;;23.08;13.70;;;;;;;3.01;74.63;98028.81;4360388;32;33683;-86
2021/12/10 00:09:45;;;;;;;22.65;13.90;;;;;;;2.68;75.88;98034.81;4360767;32;34774;-87
2021/12/10 00:12:15;;;;;;;24.25;14.30;;;;;;;2.77;75.79;98037.63;4360983;32;34316;-86
2021/12/10 00:14:43;;;;;;;22.98;14.23;;;;;;;2.48;77.03;98031.75;4360523;32;34474;-86
2021/12/10 00:17:13;;;;;;;23.92;14.43;;;;;;;2.54;76.73;98025.91;4360994;32;34398;-87
2021/12/10 00:19:47;;;;;;;24.75;14.15;;;;;;;2.51;77.04;98020.75;4360795;32;33917;-88
2021/12/10 00:22:33;;;;;;;24.40;13.90;;;;;;;2.47;77.25;98029.19;4346860;32;34152;-87
2021/12/10 00:25:02;;;;;;;24.92;14.35;;;;;;;2.74;76.13;98046.94;4352910;32;33149;-87
2021/12/10 00:27:32;;;;;;;22.90;12.65;;;;;;;2.46;77.33;98048.75;4347282;32;33356;-87
2021/12/10 00:30:10;;;;;;;22.42;13.50;;;;;;;2.49;77.45;98060.75;4360568;32;33925;-87
2021/12/10 00:32:44;;;;;;;24.77;14.87;;;;;;;2.80;76.08;98055.59;4346357;32;33902;-87
2021/12/10 00:35:17;;;;;;;25.58;14.43;;;;;;;2.85;75.93;98061.72;4360371;32;33581;-87
2021/12/10 00:37:45;;;;;;;24.33;14.38;;;;;;;2.79;75.71;98050.47;4347505;32;33691;-87
2021/12/10 00:40:14;;;;;;;23.98;14.18;;;;;;;3.12;74.70;98050.44;4360747;32;34029;-88
2021/12/10 00:42:42;;;;;;;26.37;15.93;;;;;;;2.72;75.87;98049.44;4360908;32;33971;-88
2021/12/10 00:45:12;;;;;;;25.67;16.23;;;;;;;2.86;75.22;98058.34;4334152;32;34501;-86
2021/12/10 00:47:40;;;;;;;24.30;14.10;;;;;;;3.09;74.26;98053.78;4353991;32;32909;-87
2021/12/10 00:50:11;;;;;;;25.25;14.32;;;;;;;3.28;73.68;98055.09;4359587;32;33938;-86
2021/12/10 00:52:39;;;;;;;24.40;14.68;;;;;;;2.82;75.19;98055.66;4360348;32;34145;-88
2021/12/10 00:55:07;;;;;;;26.75;15.63;;;;;;;2.75;76.07;98052.06;4360256;32;35365;-87
2021/12/10 00:57:35;;;;;;;27.00;15.43;;;;;;;2.99;75.16;98054.38;4361561;32;34132;-87
2021/12/10 01:00:11;;;;;;;24.48;14.57;;;;;;;3.03;74.64;98057.87;4346563;32;33972;-87
2021/12/10 01:02:38;;;;;;;23.95;14.30;;;;;;;2.79;75.49;98061.56;4360525;32;33610;-87
2021/12/10 01:05:07;;;;;;;20.08;12.93;;;;;;;2.86;75.00;98060.88;4360127;32;33983;-88
2021/12/10 01:07:37;;;;;;;21.30;12.95;;;;;;;2.88;75.12;98051.56;4360855;32;33663;-88
2021/12/10 01:10:26;;;;;;;20.62;13.43;;;;;;;2.85;75.24;98053.19;4346554;32;34869;-87
2021/12/10 01:12:56;;;;;;;20.17;11.45;;;;;;;2.97;74.80;98044.94;4360990;32;33024;-87
2021/12/10 01:15:54;;;;;;;20.05;12.25;;;;;;;3.15;73.97;98042.84;4360113;32;34543;-87
2021/12/10 01:24:15;;;;;;;16.85;11.27;;;;;;;3.13;74.11;98047.91;4360110;32;34270;-87
2021/12/10 01:29:21;;;;;;;18.20;11.90;;;;;;;3.38;73.01;98039.09;4346467;32;33659;-86
2021/12/10 01:31:49;;;;;;;18.50;11.70;;;;;;;3.19;73.39;98048.91;4359202;32;33900;-87
2021/12/10 01:34:17;;;;;;;17.90;10.88;;;;;;;3.27;73.35;98058.47;4360116;32;34123;-87
2021/12/10 01:36:44;;;;;;;17.55;11.48;;;;;;;3.47;72.61;98066.63;4360181;32;34831;-87
2021/12/10 01:39:16;;;;;;;17.05;11.50;;;;;;;3.06;74.13;98060.50;4346167;32;34160;-87
2021/12/10 01:41:53;;;;;;;18.30;11.77;;;;;;;3.57;72.25;98067.72;4360375;32;33981;-86
2021/12/10 01:44:30;;;;;;;17.62;11.77;;;;;;;3.51;71.80;98070.13;4360328;32;35111;-87
2021/12/10 01:47:02;;;;;;;15.63;10.65;;;;;;;3.53;71.87;98058.22;4351777;32;33864;-87
2021/12/10 01:49:30;;;;;;;16.98;11.55;;;;;;;3.79;70.89;98057.09;4359967;32;33511;-86
2021/12/10 01:51:59;;;;;;;16.30;10.65;;;;;;;3.29;72.20;98053.38;4359846;32;34852;-88
2021/12/10 01:54:40;;;;;;;15.18;10.23;;;;;;;3.20;72.96;98063.44;4360461;32;34225;-87
2021/12/10 01:57:10;;;;;;;14.77;9.18;;;;;;;2.77;74.43;98063.22;4352901;32;34391;-85
2021/12/10 01:59:38;;;;;;;14.80;9.23;;;;;;;3.40;72.10;98055.34;4343631;32;33275;-88
2021/12/10 02:02:10;;;;;;;13.07;9.32;;;;;;;2.90;73.81;98060.13;4345929;32;33484;-87
2021/12/10 02:04:40;;;;;;;14.32;9.55;;;;;;;2.97;73.54;98065.44;4347000;32;33943;-85
2021/12/10 02:07:10;;;;;;;14.50;9.43;;;;;;;3.33;72.34;98055.19;4360661;32;33861;-86
2021/12/10 02:09:38;;;;;;;14.23;9.52;;;;;;;3.22;72.55;98052.41;4359630;32;34143;-87
2021/12/10 02:12:07;;;;;;;14.65;10.15;;;;;;;2.72;74.70;98064.78;4360085;32;33843;-87
2021/12/10 02:14:34;;;;;;;14.73;9.60;;;;;;;2.37;76.05;98061.31;4346795;32;33732;-87
2021/12/10 02:17:02;;;;;;;15.43;10.82;;;;;;;2.66;75.49;98059.53;4360589;32;35092;-88
2021/12/10 02:19:30;;;;;;;17.58;11.27;;;;;;;3.24;72.95;98057.53;4359916;32;34263;-85
2021/12/10 02:21:58;;;;;;;16.67;11.15;;;;;;;3.08;73.17;98048.63;4359439;32;33946;-87
2021/12/10 02:24:25;;;;;;;17.92;11.90;;;;;;;3.16;73.47;98065.03;4360108;32;33870;-87
2021/12/10 02:26:57;;;;;;;14.45;9.98;;;;;;;3.35;72.38;98061.22;4359320;32;34154;-87
2021/12/10 02:29:27;;;;;;;15.40;10.77;;;;;;;3.30;72.54;98061.12;4359865;32;33881;-86
2021/12/10 02:31:55;;;;;;;14.98;9.93;;;;;;;3.57;71.10;98065.16;4359612;32;34947;-85
2021/12/10 02:34:23;;;;;;;17.12;10.52;;;;;;;3.38;71.44;98067.28;4346253;32;34154;-87
2021/12/10 02:36:52;;;;;;;16.48;10.57;;;;;;;3.37;72.01;98073.25;4359671;32;34776;-87
2021/12/10 02:39:24;;;;;;;15.18;10.43;;;;;;;3.60;70.66;98075.47;4359859;32;33212;-87
2021/12/10 02:41:51;;;;;;;15.55;10.55;;;;;;;3.83;70.02;98074.28;4359620;32;33823;-87
2021/12/10 02:44:23;;;;;;;16.20;10.63;;;;;;;3.50;70.80;98073.53;4360029;32;33984;-88
2021/12/10 02:46:50;;;;;;;18.15;12.23;;;;;;;3.58;70.78;98075.44;4359209;32;33429;-87
2021/12/10 02:49:18;;;;;;;19.70;13.20;;;;;;;3.57;70.59;98077.97;4346253;32;34444;-88
2021/12/10 02:51:46;;;;;;;18.25;11.73;;;;;;;3.52;70.82;98074.41;4346022;32;34730;-87
2021/12/10 02:54:21;;;;;;;18.12;12.05;;;;;;;3.57;70.12;98066.00;4333080;32;35052;-87
2021/12/10 02:56:50;;;;;;;17.90;12.47;;;;;;;3.46;70.35;98057.22;4351175;32;33942;-87
2021/12/10 02:59:18;;;;;;;19.02;12.70;;;;;;;3.12;71.15;98058.13;4345834;32;34265;-87
2021/12/10 03:01:49;;;;;;;19.90;12.93;;;;;;;2.80;71.85;98052.19;4345807;32;33018;-84
2021/12/10 03:04:17;;;;;;;18.40;12.63;;;;;;;3.21;70.85;98048.09;4355863;32;34438;-85
2021/12/10 03:06:52;;;;;;;20.35;13.30;;;;;;;2.53;72.40;98057.47;4346465;32;34658;-86
2021/12/10 03:09:22;;;;;;;18.75;13.05;;;;;;;2.75;72.42;98059.75;4358802;32;33553;-86
2021/12/10 03:11:52;;;;;;;20.27;13.23;;;;;;;3.01;71.06;98064.66;4345817;32;33877;-86
2021/12/10 03:14:22;;;;;;;24.50;15.07;;;;;;;3.37;69.97;98055.31;4346198;32;34785;-85
2021/12/10 03:16:51;;;;;;;21.62;14.45;;;;;;;2.93;71.65;98057.66;4359135;32;35022;-85
2021/12/10 03:19:20;;;;;;;20.73;14.55;;;;;;;2.82;71.68;98051.41;4359939;32;33698;-85
2021/12/10 03:21:51;;;;;;;25.05;15.10;;;;;;;3.08;70.57;98048.63;4359584;32;33897;-86
2021/12/10 03:24:22;;;;;;;24.92;15.35;;;;;;;3.13;70.13;98049.59;4359292;32;34840;-86
2021/12/10 03:26:51;;;;;;;23.33;15.43;;;;;;;3.24;69.55;98053.28;4357994;32;33202;-86
2021/12/10 03:29:22;;;;;;;25.27;16.25;;;;;;;2.65;71.67;98063.78;4345770;32;34187;-86
2021/12/10 03:31:51;;;;;;;23.20;15.30;;;;;;;2.85;71.35;98059.16;4345695;32;33908;-86
2021/12/10 03:34:19;;;;;;;24.95;16.67;;;;;;;2.83;70.49;98065.94;4345386;32;34113;-86
2021/12/10 03:36:50;;;;;;;25.55;16.42;;;;;;;3.12;69.64;98060.69;4359303;32;33917;-86
2021/12/10 03:39:21;;;;;;;24.73;17.50;;;;;;;2.83;70.53;98072.75;4359165;32;33565;-85
2021/12/10 03:41:50;;;;;;;28.40;17.77;;;;;;;2.83;71.17;98072.75;4358803;32;34550;-86
2021/12/10 03:44:18;;;;;;;30.37;18.80;;;;;;;2.89;70.83;98068.66;4345334;32;34147;-86
2021/12/10 03:46:46;;;;;;;27.77;18.48;;;;;;;2.51;72.18;98070.22;4358547;32;34765;-86
2021/12/10 03:49:14;;;;;;;30.55;17.98;;;;;;;3.22;69.58;98067.75;4345864;32;33534;-86
2021/12/10 03:51:43;;;;;;;32.83;19.90;;;;;;;2.66;71.49;98064.66;4358800;32;34295;-85
2021/12/10 03:54:11;;;;;;;30.85;19.37;;;;;;;2.67;71.93;98067.22;4345073;32;34254;-86
2021/12/10 03:56:39;;;;;;;32.60;20.60;;;;;;;2.87;71.14;98075.41;4343009;32;34012;-86
2021/12/10 03:59:12;;;;;;;32.63;20.12;;;;;;;3.06;70.71;98084.44;4344994;32;33638;-84
2021/12/10 04:01:42;;;;;;;30.90;20.27;;;;;;;2.97;70.86;98075.66;4358192;32;33948;-85
2021/12/10 04:04:14;;;;;;;33.03;20.25;;;;;;;3.31;69.79;98078.22;4358722;32;34124;-86
2021/12/10 04:06:41;;;;;;;33.25;20.52;;;;;;;2.79;71.14;98076.06;4358427;32;34748;-86
2021/12/10 04:09:09;;;;;;;30.73;19.87;;;;;;;3.04;70.40;98077.56;4345363;32;34044;-85
2021/12/10 04:11:37;;;;;;;35.65;20.62;;;;;;;3.59;68.15;98077.16;4359144;32;34039;-86
2021/12/10 04:14:05;;;;;;;37.70;21.90;;;;;;;3.11;69.72;98085.44;4345243;32;33777;-86
2021/12/10 04:16:34;;;;;;;35.08;22.87;;;;;;;3.23;69.67;98076.31;4357824;32;34501;-85
2021/12/10 04:19:05;;;;;;;35.80;23.60;;;;;;;3.22;69.33;98087.34;4345012;32;34387;-86
2021/12/10 04:21:39;;;;;;;38.25;23.17;;;;;;;3.39;69.03;98086.94;4345856;32;34397;-86
2021/12/10 04:24:13;;;;;;;38.05;22.27;;;;;;;3.07;69.91;98092.97;4347222;32;33992;-86
2021/12/10 04:26:40;;;;;;;37.42;23.55;;;;;;;3.37;69.33;98098.88;4360433;32;34543;-86
2021/12/10 04:29:08;;;;;;;40.15;25.42;;;;;;;3.42;69.11;98102.41;4347146;32;33507;-85
2021/12/10 04:31:36;;;;;;;42.83;25.67;;;;;;;3.59;68.54;98099.34;4360308;32;33526;-86
2021/12/10 04:34:04;;;;;;;40.03;25.37;;;;;;;3.34;68.94;98100.50;4346415;32;34101;-85
2021/12/10 04:36:33;;;;;;;39.42;25.33;;;;;;;3.52;68.54;98107.72;4332779;33;33922;-84
2021/12/10 04:39:01;;;;;;;40.22;24.05;;;;;;;3.67;68.13;98100.38;4358451;32;33716;-86
2021/12/10 04:41:29;;;;;;;40.85;25.42;;;;;;;3.74;67.85;98112.50;4347442;32;33951;-86
2021/12/10 04:43:56;;;;;;;39.17;24.55;;;;;;;3.47;68.29;98117.87;4360276;32;34997;-85
2021/12/10 04:46:24;;;;;;;44.40;25.92;;;;;;;3.63;67.95;98112.25;4334843;32;32423;-86
2021/12/10 04:48:58;;;;;;;40.17;24.70;;;;;;;3.85;67.37;98108.50;4360926;32;34423;-85
2021/12/10 04:51:33;;;;;;;41.78;25.98;;;;;;;3.53;67.91;98112.03;4360635;32;33966;-84
2021/12/10 04:54:01;;;;;;;45.08;27.80;;;;;;;3.59;67.78;98120.72;4360158;32;34047;-84
2021/12/10 04:56:29;;;;;;;44.22;27.10;;;;;;;3.39;68.27;98127.94;4347127;32;34824;-85
2021/12/10 04:58:57;;;;;;;44.72;28.00;;;;;;;2.83;70.68;98135.03;4360062;32;33647;-85
2021/12/10 05:01:26;;;;;;;44.13;27.95;;;;;;;3.31;69.08;98139.69;4360464;32;34169;-84
2021/12/10 05:03:54;;;;;;;47.38;27.17;;;;;;;3.47;68.54;98152.88;4351146;32;35058;-85
2021/12/10 05:06:21;;;;;;;48.13;28.65;;;;;;;3.53;68.12;98150.47;4346739;32;33795;-85
2021/12/10 05:08:49;;;;;;;51.75;27.40;;;;;;;3.22;69.31;98149.72;4361135;32;33267;-85
2021/12/10 05:11:17;;;;;;;47.22;28.67;;;;;;;2.98;70.28;98149.94;4346834;32;34038;-85
2021/12/10 05:13:46;;;;;;;50.08;28.95;;;;;;;3.28;69.08;98139.63;4360396;32;33648;-85
2021/12/10 05:16:15;;;;;;;49.55;27.85;;;;;;;3.40;68.70;98139.03;4334431;32;33042;-83
2021/12/10 05:18:46;;;;;;;51.97;29.87;;;;;;;3.40;68.59;98139.91;4359464;32;33437;-87
2021/12/10 05:21:14;;;;;;;53.30;30.70;;;;;;;3.20;69.53;98140.25;4332415;32;33607;-86
2021/12/10 05:23:41;;;;;;;55.75;29.15;;;;;;;2.71;71.69;98151.78;4356657;32;35101;-86
2021/12/10 05:26:09;;;;;;;60.70;32.55;;;;;;;3.34;69.73;98147.47;4345724;32;33988;-86
2021/12/10 05:28:37;;;;;;;55.15;31.80;;;;;;;3.20;70.18;98148.81;4347497;32;33030;-86
2021/12/10 05:31:05;;;;;;;57.35;32.90;;;;;;;3.33;69.59;98143.19;4335327;32;34823;-86
2021/12/10 05:33:33;;;;;;;55.78;32.13;;;;;;;3.50;69.21;98142.72;4359580;32;34253;-87
2021/12/10 05:36:05;;;;;;;55.63;31.08;;;;;;;3.35;69.86;98143.19;4334334;32;33746;-88
2021/12/10 05:38:33;;;;;;;55.50;32.10;;;;;;;3.62;69.06;98148.97;4344722;32;34215;-85
2021/12/10 05:41:05;;;;;;;57.45;32.35;;;;;;;3.62;68.71;98155.81;4342415;32;33739;-85
2021/12/10 05:43:33;;;;;;;55.00;31.75;;;;;;;3.63;68.61;98147.28;4355158;32;33881;-87
2021/12/10 05:46:00;;;;;;;59.30;31.35;;;;;;;3.45;69.17;98146.84;4358018;32;34808;-85
2021/12/10 05:48:28;;;;;;;56.80;31.25;;;;;;;3.69;68.44;98138.88;4359550;32;34720;-85
2021/12/10 05:50:56;;;;;;;53.78;30.80;;;;;;;3.88;68.05;98138.47;4360155;32;34562;-85
2021/12/10 05:53:24;;;;;;;63.65;32.70;;;;;;;3.58;68.85;98142.06;4345760;33;35203;-85
2021/12/10 05:55:52;;;;;;;60.12;33.85;;;;;;;3.24;69.99;98145.50;4332288;33;33964;-85
2021/12/10 05:58:21;;;;;;;59.22;32.95;;;;;;;3.78;68.09;98142.50;4345514;32;33534;-86
2021/12/10 06:00:52;;;;;;;62.80;35.40;;;;;;;3.95;67.87;98140.34;4360458;32;34732;-86
2021/12/10 06:03:20;;;;;;;60.17;34.05;;;;;;;3.70;68.63;98138.91;4360407;32;33691;-86
2021/12/10 06:05:47;;;;;;;62.08;34.85;;;;;;;3.80;68.57;98120.34;4347046;32;34375;-84
2021/12/10 06:08:15;;;;;;;68.20;35.50;;;;;;;3.80;68.59;98117.78;4360493;32;33104;-84
2021/12/10 06:10:44;;;;;;;66.55;35.90;;;;;;;3.99;68.05;98113.94;4360512;32;33831;-84
2021/12/10 06:13:12;;;;;;;64.30;36.30;;;;;;;3.87;68.14;98116.25;4347343;32;34808;-84
2021/12/10 06:15:39;;;;;;;58.47;33.00;;;;;;;3.98;68.04;98113.88;4360269;32;34732;-85
2021/12/10 06:18:08;;;;;;;60.38;33.58;;;;;;;4.19;67.48;98113.50;4334790;32;32839;-85
2021/12/10 06:20:40;;;;;;;62.45;34.08;;;;;;;4.11;67.46;98109.06;4347494;32;33900;-85
2021/12/10 06:23:08;;;;;;;66.85;33.90;;;;;;;4.04;67.71;98103.78;4347198;32;33514;-85
2021/12/10 06:25:37;;;;;;;65.80;35.13;;;;;;;4.20;67.04;98102.38;4322374;32;33104;-85
2021/12/10 07:44:57;;;;;;;48.83;29.52;;;;;;;4.17;67.47;98090.38;4389412;32;34554;-85
2021/12/10 07:47:26;;;;;;;56.30;32.75;;;;;;;4.19;67.38;98098.97;4392114;32;34799;-85
2021/12/10 07:49:58;;;;;;;51.78;32.90;;;;;;;3.84;68.56;98090.53;4380203;32;35325;-87
2021/12/10 07:52:28;;;;;;;49.55;29.75;;;;;;;4.24;67.06;98081.09;4391918;32;35330;-85
2021/12/10 07:54:55;;;;;;;55.08;31.30;;;;;;;4.43;66.70;98077.19;4392111;32;34557;-85
2021/12/10 07:57:24;;;;;;;49.97;30.55;;;;;;;4.19;67.46;98065.63;4393527;32;35393;-85
2021/12/10 07:59:51;;;;;;;55.97;33.70;;;;;;;4.45;66.93;98058.44;4381290;32;35491;-85
2021/12/10 08:02:19;;;;;;;49.42;31.08;;;;;;;4.20;67.50;98059.63;4394102;32;35178;-85
2021/12/10 08:04:47;;;;;;;47.72;30.48;;;;;;;4.00;67.77;98053.25;4394166;32;34543;-85
2021/12/10 08:07:14;;;;;;;51.33;30.00;;;;;;;3.80;68.36;98045.16;4380999;32;35240;-85
2021/12/10 08:09:43;;;;;;;49.03;28.95;;;;;;;4.37;65.96;98050.59;4394031;32;35365;-85
2021/12/10 08:12:11;;;;;;;48.45;30.35;;;;;;;3.93;67.56;98061.66;4393892;32;35302;-85
2021/12/10 08:14:39;;;;;;;53.20;30.90;;;;;;;3.94;67.76;98058.25;4381156;32;33782;-85
2021/12/10 08:17:06;;;;;;;52.85;30.80;;;;;;;3.40;69.35;98060.47;4381318;32;35017;-85
2021/12/10 08:19:34;;;;;;;54.50;30.65;;;;;;;3.52;69.33;98065.03;4381252;32;35253;-86
2021/12/10 08:22:01;;;;;;;55.80;31.35;;;;;;;3.83;68.57;98063.16;4393686;32;35380;-85
2021/12/10 08:24:29;;;;;;;45.38;28.70;;;;;;;3.64;69.05;98069.59;4393950;32;34888;-86
2021/12/10 08:26:57;;;;;;;50.50;31.08;;;;;;;3.52;69.13;98069.28;4381163;32;34980;-85
2021/12/10 08:29:25;;;;;;;57.50;35.20;;;;;;;3.57;69.07;98073.69;4381110;32;36206;-86
2021/12/10 08:31:54;;;;;;;60.75;34.28;;;;;;;3.94;68.08;98069.41;4393845;32;35085;-86
2021/12/10 08:34:22;;;;;;;59.45;35.33;;;;;;;4.04;68.21;98080.69;4393701;32;35136;-84
2021/12/10 08:36:49;;;;;;;64.65;36.42;;;;;;;3.90;68.63;98081.28;4393783;32;35404;-85
2021/12/10 08:39:17;;;;;;;64.43;36.25;;;;;;;3.23;70.68;98082.28;4368729;32;35148;-85
2021/12/10 08:41:45;;;;;;;71.60;39.40;;;;;;;3.66;69.74;98075.59;4393761;32;34994;-85
2021/12/10 08:44:13;;;;;;;73.43;40.25;;;;;;;3.66;69.40;98085.84;4393524;32;34805;-85
2021/12/10 08:46:43;;;;;;;71.47;41.30;;;;;;;3.45;70.27;98082.78;4393819;32;34989;-85
2021/12/10 08:49:13;;;;;;;110.93;57.25;;;;;;;3.72;69.77;98078.31;4393606;32;35386;-86
2021/12/10 08:51:43;;;;;;;72.35;38.60;;;;;;;3.94;69.15;98073.63;4381122;32;35037;-85
2021/12/10 08:54:12;;;;;;;66.75;37.33;;;;;;;4.20;67.94;98077.59;4381070;32;34507;-85
2021/12/10 08:56:41;;;;;;;63.95;36.50;;;;;;;4.07;68.23;98070.50;4393545;32;35237;-85
2021/12/10 08:59:09;;;;;;;70.57;39.40;;;;;;;3.72;68.95;98070.63;4393632;32;35496;-86
2021/12/10 09:01:41;;;;;;;71.90;37.67;;;;;;;3.62;69.25;98077.22;4381001;32;35288;-85
2021/12/10 09:04:09;;;;;;;69.97;42.60;;;;;;;4.03;68.70;98076.41;4393446;32;34494;-85
2021/12/10 09:06:40;;;;;;;62.92;35.83;;;;;;;3.97;69.14;98066.00;4393554;32;35251;-85
2021/12/10 09:09:10;;;;;;;58.10;32.03;;;;;;;3.87;69.08;98070.94;4379965;32;35387;-86
2021/12/10 09:11:40;;;;;;;59.28;35.22;;;;;;;4.19;68.54;98075.88;4393392;32;35303;-85
2021/12/10 09:14:21;;;;;;;56.83;34.30;;;;;;;4.18;68.78;98086.97;4393585;32;34913;-85
2021/12/10 09:16:49;;;;;;;53.35;30.98;;;;;;;4.55;67.60;98082.59;4393439;32;35296;-85
2021/12/10 09:19:17;;;;;;;61.20;37.85;;;;;;;3.95;68.84;98080.50;4380582;32;35190;-85
2021/12/10 09:21:45;;;;;;;53.60;31.80;;;;;;;3.68;69.40;98089.31;4380482;32;35473;-86
2021/12/10 09:24:14;;;;;;;58.55;33.55;;;;;;;3.68;69.39;98093.59;4380748;32;34248;-86
2021/12/10 09:26:44;;;;;;;49.95;31.23;;;;;;;4.04;68.67;98090.94;4393508;32;35252;-86
2021/12/10 09:29:13;;;;;;;49.08;27.90;;;;;;;4.43;67.61;98098.59;4380833;32;35429;-85
2021/12/10 09:31:42;;;;;;;53.55;30.23;;;;;;;4.08;67.73;98088.47;4380824;32;36207;-86
2021/12/10 09:34:12;;;;;;;56.42;32.72;;;;;;;4.34;66.81;98085.59;4380753;32;34990;-85
2021/12/10 09:36:43;;;;;;;52.30;30.83;;;;;;;4.44;66.55;98089.22;4393372;32;35189;-85
2021/12/10 09:39:11;;;;;;;48.60;30.05;;;;;;;4.58;66.52;98083.50;4393414;32;34956;-85
2021/12/10 09:41:40;;;;;;;45.58;27.02;;;;;;;4.90;66.29;98085.78;4393407;32;35194;-86
2021/12/10 09:44:08;;;;;;;48.53;29.52;;;;;;;4.91;66.11;98087.50;4362432;32;82054;-86
2021/12/10 09:46:36;;;;;;;48.08;30.55;;;;;;;5.11;65.58;98093.00;4383752;32;35010;-86
2021/12/10 09:49:06;;;;;;;43.67;27.33;;;;;;;5.22;65.82;98082.91;4380650;32;35370;-85
2021/12/10 09:51:40;;;;;;;44.42;26.62;;;;;;;5.29;65.30;98080.44;4380582;32;35439;-86
2021/12/10 09:54:11;;;;;;;43.17;26.50;;;;;;;5.10;64.90;98086.13;4393446;32;34346;-86
2021/12/10 09:56:54;;;;;;;36.13;23.67;;;;;;;4.94;65.17;98086.72;4380530;32;34867;-85
2021/12/10 09:59:24;;;;;;;40.42;23.85;;;;;;;5.11;64.63;98080.16;4380616;32;34555;-86
2021/12/10 10:01:52;;;;;;;40.03;25.52;;;;;;;4.63;65.34;98088.72;4380552;32;35007;-86
2021/12/10 10:04:25;;;;;;;36.88;22.75;;;;;;;3.98;67.50;98077.97;4393289;32;34394;-86
2021/12/10 10:06:56;;;;;;;35.40;21.65;;;;;;;4.36;67.01;98089.06;4380654;32;35238;-86
2021/12/10 10:09:25;;;;;;;34.80;22.45;;;;;;;4.41;66.67;98094.28;4392485;32;35489;-86
2021/12/10 10:12:04;;;;;;;37.13;23.23;;;;;;;3.96;66.99;98092.50;4380010;32;35300;-86
2021/12/10 10:14:32;;;;;;;34.75;20.60;;;;;;;4.62;66.00;98093.00;4380035;32;34093;-85
2021/12/10 10:17:00;;;;;;;31.60;21.48;;;;;;;5.04;65.02;98088.63;4367801;32;35233;-86
2021/12/10 10:19:27;;;;;;;28.38;18.77;;;;;;;5.06;64.94;98082.66;4379851;32;35462;-86
2021/12/10 10:21:57;;;;;;;26.20;17.42;;;;;;;5.19;64.47;98083.72;4368033;32;33897;-85
2021/12/10 10:24:27;;;;;;;30.45;19.17;;;;;;;5.15;64.78;98075.91;4380339;32;33455;-86
2021/12/10 10:27:00;;;;;;;25.60;17.35;;;;;;;5.21;64.56;98071.75;4392857;32;35265;-86
2021/12/10 10:29:32;;;;;;;26.67;17.27;;;;;;;5.44;64.22;98068.69;4392986;32;35481;-86
2021/12/10 10:32:09;;;;;;;39.40;25.65;;;;;;;5.25;64.33;98065.81;4392865;32;35186;-85
2021/12/10 10:34:41;;;;;;;39.90;25.48;;;;;;;5.30;64.07;98060.75;4380734;32;34580;-85
2021/12/10 10:37:09;;;;;;;47.03;28.85;;;;;;;4.68;65.42;98056.28;4380280;32;35228;-85
2021/12/10 10:39:40;;;;;;;50.97;29.48;;;;;;;4.35;67.89;98051.38;4380516;32;34867;-85
2021/12/10 10:42:12;;;;;;;52.97;32.17;;;;;;;4.05;68.47;98049.97;4380495;32;34928;-85
2021/12/10 10:44:55;;;;;;;;;;;;;;;4.17;68.56;98049.34;4382036;32;34656;-85
2021/12/10 10:47:24;;;;;;;54.90;32.50;;;;;;;4.63;67.22;98034.81;4367744;32;34245;-86
2021/12/10 10:49:59;;;;;;;56.65;31.98;;;;;;;4.56;67.94;98035.53;4380384;32;35500;-86
2021/12/10 10:52:32;;;;;;;58.78;35.42;;;;;;;4.38;68.48;98028.34;4380078;32;34762;-86
2021/12/10 10:55:16;;;;;;;62.08;38.42;;;;;;;3.38;71.96;98028.84;4392791;32;34459;-86
2021/12/10 10:58:05;;;;;;;64.00;37.47;;;;;;;3.75;71.28;98022.00;4380001;32;35185;-86
2021/12/10 11:00:50;;;;;;;63.38;37.33;;;;;;;4.16;69.96;98016.81;4392440;32;34447;-86
2021/12/10 11:03:44;;;;;;;68.25;39.70;;;;;;;3.59;71.61;98018.22;4392589;32;35546;-86
2021/12/10 11:06:21;;;;;;;62.42;39.80;;;;;;;3.73;71.76;98026.19;4380074;32;34560;-86
2021/12/10 11:08:51;;;;;;;62.33;37.33;;;;;;;3.86;71.32;98022.19;4367934;32;34828;-86
2021/12/10 11:11:34;;;;;;;72.80;40.33;;;;;;;4.03;70.40;98010.59;4379802;32;36101;-86
2021/12/10 11:14:07;;;;;;;68.50;40.88;;;;;;;3.82;71.32;98013.56;4392452;32;35362;-86
2021/12/10 11:16:37;;;;;;;68.20;40.03;;;;;;;4.19;69.48;98006.63;4379860;32;34961;-86
2021/12/10 11:19:09;;;;;;;67.00;40.92;;;;;;;4.11;69.72;98000.47;4392517;32;34744;-86
2021/12/10 11:21:38;;;;;;;75.57;43.30;;;;;;;3.46;71.82;98003.41;4379815;32;34549;-86
2021/12/10 11:24:16;;;;;;;70.32;40.92;;;;;;;3.56;72.06;97999.34;4379725;32;35387;-86
2021/12/10 11:26:56;;;;;;;69.18;41.33;;;;;;;3.84;71.04;98009.34;4392498;32;34479;-86
2021/12/10 11:29:41;;;;;;;72.65;42.40;;;;;;;4.19;69.70;98009.19;4392109;32;35149;-86
2021/12/10 11:32:15;;;;;;;72.40;41.97;;;;;;;3.87;71.17;98013.69;4380944;32;35091;-86
2021/12/10 11:34:47;;;;;;;63.83;39.15;;;;;;;4.26;70.12;97999.91;4394100;32;35040;-86
2021/12/10 11:37:18;;;;;;;68.80;41.88;;;;;;;4.03;70.22;98004.59;4381514;32;34874;-86
2021/12/10 11:39:52;;;;;;;73.30;42.38;;;;;;;3.86;70.95;97999.13;4381420;32;34009;-86
2021/12/10 11:42:33;;;;;;;69.97;40.97;;;;;;;4.27;70.15;98002.50;4369060;32;35371;-86
2021/12/10 11:45:16;;;;;;;72.28;43.90;;;;;;;3.54;72.48;97998.44;4393752;32;35355;-86
2021/12/10 11:47:50;;;;;;;71.57;42.72;;;;;;;3.72;72.08;97998.84;4382958;32;34654;-86
2021/12/10 11:50:21;;;;;;;67.43;39.20;;;;;;;4.06;70.83;98005.53;4394030;32;35246;-86
2021/12/10 11:53:11;;;;;;;74.80;42.35;;;;;;;3.65;72.17;98000.41;4394098;32;35123;-86
2021/12/10 11:56:01;;;;;;;72.47;42.88;;;;;;;3.71;72.02;98001.38;4368805;32;33663;-86
2021/12/10 11:58:29;;;;;;;72.40;41.92;;;;;;;3.21;74.12;98009.66;4381196;32;34994;-86
2021/12/10 12:00:56;;;;;;;76.05;42.85;;;;;;;3.71;72.14;98001.38;4393822;32;35194;-86
2021/12/10 12:03:33;;;;;;;76.03;44.33;;;;;;;3.79;72.08;97995.59;4393954;32;35452;-86
2021/12/10 12:06:02;;;;;;;81.30;48.00;;;;;;;3.33;73.55;97989.47;4393978;32;35214;-86
2021/12/10 12:08:31;;;;;;;75.68;43.40;;;;;;;3.80;72.25;97983.63;4381288;32;34641;-86
2021/12/10 12:11:00;;;;;;;71.93;42.90;;;;;;;4.03;71.63;97978.94;4394127;32;34769;-86
2021/12/10 12:13:56;;;;;;;73.00;42.55;;;;;;;4.25;70.90;97993.06;4393828;32;34847;-86
2021/12/10 12:16:27;;;;;;;73.75;43.58;;;;;;;4.24;70.81;97994.72;4393936;32;35455;-86
2021/12/10 12:19:00;;;;;;;74.18;43.92;;;;;;;4.25;70.40;97996.47;4381467;32;35020;-86
2021/12/10 12:27:05;;;;;;;78.28;43.72;;;;;;;3.40;72.84;97991.31;4379481;32;34903;-86
2021/12/10 12:29:55;;;;;;;81.03;45.47;;;;;;;4.04;70.98;97984.09;4378825;32;35011;-85
2021/12/10 12:32:31;;;;;;;70.85;43.38;;;;;;;3.57;72.26;97980.59;4377314;32;34710;-86
2021/12/10 12:35:20;;;;;;;63.55;38.28;;;;;;;3.41;73.04;97975.13;4378495;32;35485;-86
2021/12/10 12:37:48;;;;;;;67.70;40.78;;;;;;;3.20;73.32;97976.34;4365933;32;35264;-86
2021/12/10 12:40:36;;;;;;;68.78;40.20;;;;;;;3.30;73.60;97975.72;4378209;32;35009;-87
2021/12/10 12:43:06;;;;;;;68.25;39.53;;;;;;;2.96;74.61;97976.66;4365905;32;35258;-86
2021/12/10 12:45:46;;;;;;;67.00;39.05;;;;;;;3.41;72.66;97962.31;4378497;32;35493;-86
2021/12/10 12:48:24;;;;;;;76.68;42.70;;;;;;;3.56;71.51;97961.78;4365584;32;34334;-87
2021/12/10 12:50:55;;;;;;;75.05;43.55;;;;;;;3.81;70.79;97960.56;4378704;32;34479;-86
2021/12/10 12:53:29;;;;;;;59.13;36.70;;;;;;;3.57;71.50;97960.09;4378668;32;34908;-86
2021/12/10 12:56:13;;;;;;;67.93;38.88;;;;;;;3.57;71.03;97965.22;4366175;32;35528;-86
2021/12/10 12:59:06;;;;;;;59.30;36.95;;;;;;;3.75;71.18;97946.75;4378361;32;35185;-86
2021/12/10 13:01:50;;;;;;;62.95;38.03;;;;;;;4.06;69.65;97949.09;4365915;32;33476;-86
2021/12/10 13:04:28;;;;;;;55.35;34.15;;;;;;;3.59;70.81;97948.16;4365691;32;33683;-86
2021/12/10 13:07:18;;;;;;;64.65;38.03;;;;;;;3.34;71.06;97951.91;4378421;32;35143;-86
2021/12/10 13:09:53;;;;;;;60.75;36.72;;;;;;;3.28;72.08;97954.31;4365876;32;34798;-86
2021/12/10 13:13:25;;;;;;;61.05;36.47;;;;;;;3.37;71.71;97952.84;4378358;32;34913;-86
2021/12/10 13:15:24;;;;;;;62.20;35.70;;;;;;;3.52;71.11;97954.84;4359352;32;34386;-86
2021/12/10 13:17:59;;;;;;;61.78;37.28;;;;;;;3.42;71.31;97943.56;4365765;32;35432;-86